createdAt,value
2023-05-13T00:00:48.364Z,12.46
2023-05-13T00:03:15.781Z,12.46
2023-05-13T00:05:43.219Z,12.47
2023-05-13T00:08:12.836Z,12.46
2023-05-13T00:10:40.352Z,12.44
2023-05-13T00:13:08.842Z,12.44
2023-05-13T00:15:36.107Z,12.38
2023-05-13T00:18:03.426Z,12.41
2023-05-13T00:20:30.769Z,12.34
2023-05-13T00:22:58.149Z,12.34
2023-05-13T00:25:25.396Z,12.33
2023-05-13T00:27:52.691Z,12.32
2023-05-13T00:30:20.104Z,12.29
2023-05-13T00:32:47.993Z,12.29
2023-05-13T00:35:15.418Z,12.31
2023-05-13T00:37:42.761Z,12.29
2023-05-13T00:40:20.626Z,12.30
2023-05-13T00:42:48.207Z,12.31
2023-05-13T00:45:15.610Z,12.32
2023-05-13T00:47:43.630Z,12.30
2023-05-13T00:50:12.032Z,12.30
2023-05-13T00:52:40.359Z,12.28
2023-05-13T00:55:09.087Z,12.15
2023-05-13T00:57:37.908Z,12.18
2023-05-13T01:00:06.420Z,12.16
2023-05-13T01:02:47.277Z,12.17
2023-05-13T01:05:25.489Z,12.19
2023-05-13T01:08:08.848Z,12.19
2023-05-13T01:10:38.068Z,12.23
2023-05-13T01:13:11.869Z,12.21
2023-05-13T01:15:46.304Z,12.21
2023-05-13T01:18:19.777Z,12.22
2023-05-13T01:20:48.212Z,12.22
2023-05-13T01:23:15.496Z,12.23
2023-05-13T01:25:42.905Z,12.27
2023-05-13T01:28:10.559Z,12.19
2023-05-13T01:30:38.280Z,12.16
2023-05-13T01:33:06.078Z,12.16
2023-05-13T01:35:36.038Z,12.14
2023-05-13T01:38:04.871Z,12.14
2023-05-13T01:40:33.345Z,12.13
2023-05-13T01:43:01.193Z,12.12
2023-05-13T01:45:30.492Z,12.13
2023-05-13T01:47:58.003Z,12.13
2023-05-13T01:50:25.629Z,12.15
2023-05-13T01:52:53.159Z,12.13
2023-05-13T01:55:20.538Z,12.11
2023-05-13T01:57:47.917Z,12.07
2023-05-13T02:00:16.155Z,12.06
2023-05-13T02:02:47.202Z,12.05
2023-05-13T02:05:15.088Z,12.07
2023-05-13T02:07:42.595Z,12.00
2023-05-13T02:10:10.749Z,11.86
2023-05-13T02:12:38.150Z,11.90
2023-05-13T02:15:06.307Z,11.88
2023-05-13T02:17:33.649Z,11.86
2023-05-13T02:20:00.961Z,11.85
2023-05-13T02:22:28.497Z,11.83
2023-05-13T02:24:55.858Z,11.87
2023-05-13T02:27:24.097Z,11.89
2023-05-13T02:29:51.522Z,11.92
2023-05-13T02:32:18.818Z,11.94
2023-05-13T02:34:46.328Z,11.95
2023-05-13T02:37:14.000Z,11.99
2023-05-13T02:39:41.301Z,12.02
2023-05-13T02:42:08.636Z,12.02
2023-05-13T02:44:38.980Z,12.03
2023-05-13T02:47:06.432Z,11.97
2023-05-13T02:49:33.782Z,11.98
2023-05-13T02:52:01.151Z,11.99
2023-05-13T02:54:29.038Z,11.99
2023-05-13T02:56:56.350Z,12.00
2023-05-13T02:59:23.611Z,11.98
2023-05-13T03:01:50.938Z,11.99
2023-05-13T03:04:18.420Z,12.06
2023-05-13T03:06:47.145Z,12.12
2023-05-13T03:09:14.411Z,12.14
2023-05-13T03:11:41.785Z,12.13
2023-05-13T03:14:08.994Z,12.13
2023-05-13T03:16:36.358Z,12.15
2023-05-13T03:19:03.758Z,12.13
2023-05-13T03:21:31.372Z,12.08
2023-05-13T03:23:58.768Z,12.12
2023-05-13T03:26:27.390Z,12.10
2023-05-13T03:28:54.632Z,12.05
2023-05-13T03:31:22.277Z,11.98
2023-05-13T03:33:49.941Z,11.96
2023-05-13T03:36:17.278Z,12.00
2023-05-13T03:38:44.513Z,11.94
2023-05-13T03:41:12.021Z,11.96
2023-05-13T03:43:39.852Z,11.97
2023-05-13T03:46:07.200Z,11.98
2023-05-13T03:48:34.676Z,11.88
2023-05-13T03:51:02.610Z,11.90
2023-05-13T03:53:30.075Z,11.91
2023-05-13T03:55:57.491Z,11.88
2023-05-13T03:58:24.822Z,11.86
2023-05-13T04:00:52.342Z,11.89
2023-05-13T04:03:19.799Z,11.92
2023-05-13T04:05:47.644Z,11.92
2023-05-13T04:08:15.548Z,11.94
2023-05-13T04:10:43.072Z,11.88
2023-05-13T04:13:10.411Z,11.88
2023-05-13T04:15:37.778Z,11.89
2023-05-13T04:18:05.252Z,11.90
2023-05-13T04:20:32.644Z,11.91
2023-05-13T04:23:00.002Z,11.92
2023-05-13T04:25:27.399Z,11.95
2023-05-13T04:27:54.753Z,11.95
2023-05-13T04:30:22.745Z,11.97
2023-05-13T04:32:50.620Z,11.96
2023-05-13T04:35:17.936Z,11.94
2023-05-13T04:37:45.472Z,11.95
2023-05-13T04:40:13.344Z,11.94
2023-05-13T04:42:40.681Z,11.94
2023-05-13T04:45:08.812Z,11.97
2023-05-13T04:47:38.481Z,11.96
2023-05-13T04:50:07.221Z,11.97
2023-05-13T04:52:35.029Z,11.94
2023-05-13T04:55:02.328Z,11.93
2023-05-13T04:57:29.640Z,11.93
2023-05-13T04:59:57.041Z,11.91
2023-05-13T05:02:24.424Z,11.93
2023-05-13T05:04:51.909Z,11.91
2023-05-13T05:07:19.303Z,11.90
2023-05-13T05:09:46.765Z,11.89
2023-05-13T05:12:14.973Z,11.93
2023-05-13T05:14:42.499Z,11.95
2023-05-13T05:17:09.788Z,11.94
2023-05-13T05:19:37.098Z,11.94
2023-05-13T05:22:04.718Z,11.97
2023-05-13T05:24:32.102Z,11.99
2023-05-13T05:26:59.570Z,12.00
2023-05-13T05:29:26.818Z,12.00
2023-05-13T05:31:54.264Z,12.02
2023-05-13T05:34:21.629Z,12.03
2023-05-13T05:36:49.036Z,12.00
2023-05-13T05:39:16.282Z,11.96
2023-05-13T05:41:43.643Z,11.94
2023-05-13T05:44:13.879Z,11.93
2023-05-13T05:46:41.236Z,11.92
2023-05-13T05:49:08.794Z,11.87
2023-05-13T05:51:36.608Z,11.87
2023-05-13T05:54:04.166Z,11.84
2023-05-13T05:56:31.531Z,11.84
2023-05-13T05:58:58.844Z,11.85
2023-05-13T06:01:26.208Z,11.84
2023-05-13T06:03:54.920Z,11.88
2023-05-13T06:06:22.578Z,11.88
2023-05-13T06:08:50.089Z,11.92
2023-05-13T06:11:18.387Z,11.92
2023-05-13T06:13:45.807Z,11.93
2023-05-13T06:16:13.144Z,11.97
2023-05-13T06:18:40.738Z,12.02
2023-05-13T06:21:08.175Z,12.03
2023-05-13T06:23:35.497Z,12.06
2023-05-13T06:26:02.851Z,12.08
2023-05-13T06:28:30.181Z,12.10
2023-05-13T06:30:57.932Z,12.11
2023-05-13T06:33:25.490Z,12.10
2023-05-13T06:35:53.792Z,12.14
2023-05-13T06:38:21.281Z,12.14
2023-05-13T06:40:48.632Z,12.12
2023-05-13T06:43:16.811Z,12.09
2023-05-13T06:45:44.422Z,12.09
2023-05-13T06:48:11.725Z,12.09
2023-05-13T06:50:39.079Z,12.10
2023-05-13T06:53:06.403Z,12.07
2023-05-13T06:55:36.534Z,12.06
2023-05-13T06:58:03.780Z,12.07
2023-05-13T07:00:31.373Z,12.12
2023-05-13T07:02:58.755Z,12.18
2023-05-13T07:05:27.411Z,12.21
2023-05-13T07:07:54.843Z,12.14
2023-05-13T07:10:22.593Z,12.14
2023-05-13T07:12:50.391Z,12.05
2023-05-13T07:15:18.155Z,12.00
2023-05-13T07:17:45.569Z,11.99
2023-05-13T07:20:14.469Z,12.03
2023-05-13T07:22:41.909Z,12.09
2023-05-13T07:25:09.722Z,12.16
2023-05-13T07:27:36.970Z,12.16
2023-05-13T07:30:04.468Z,12.17
2023-05-13T07:32:36.457Z,12.17
2023-05-13T07:35:05.134Z,12.19
2023-05-13T07:37:32.540Z,12.20
2023-05-13T07:39:59.793Z,12.22
2023-05-13T07:42:27.722Z,12.27
2023-05-13T07:44:55.057Z,12.28
2023-05-13T07:47:22.698Z,12.29
2023-05-13T07:49:50.557Z,12.32
2023-05-13T07:52:17.946Z,12.32
2023-05-13T07:54:45.281Z,12.35
2023-05-13T07:57:12.685Z,12.33
2023-05-13T07:59:39.927Z,12.39
2023-05-13T08:02:10.864Z,12.39
2023-05-13T08:04:38.208Z,12.37
2023-05-13T08:07:05.923Z,12.40
2023-05-13T08:09:33.268Z,12.47
2023-05-13T08:12:00.603Z,12.51
2023-05-13T08:14:28.002Z,12.57
2023-05-13T08:16:55.430Z,12.63
2023-05-13T08:19:22.915Z,12.67
2023-05-13T08:21:50.533Z,12.71
2023-05-13T08:24:17.860Z,12.71
2023-05-13T08:26:45.299Z,12.77
2023-05-13T08:29:15.970Z,12.76
2023-05-13T08:31:43.530Z,12.73
2023-05-13T08:34:11.022Z,12.72
2023-05-13T08:36:38.562Z,12.77
2023-05-13T08:39:05.950Z,12.78
2023-05-13T08:41:34.711Z,12.80
2023-05-13T08:44:07.261Z,12.85
2023-05-13T08:46:36.756Z,12.88
2023-05-13T08:49:04.739Z,12.94
2023-05-13T08:51:32.610Z,12.97
2023-05-13T08:54:03.040Z,12.95
2023-05-13T08:56:30.377Z,12.92
2023-05-13T08:58:57.764Z,12.80
2023-05-13T09:01:26.917Z,12.83
2023-05-13T09:04:06.893Z,12.80
2023-05-13T09:06:34.649Z,12.79
2023-05-13T09:09:03.603Z,12.82
2023-05-13T09:11:30.938Z,12.85
2023-05-13T09:13:59.983Z,12.86
2023-05-13T09:16:29.666Z,12.88
2023-05-13T09:19:03.904Z,12.91
2023-05-13T09:21:35.928Z,12.97
2023-05-13T09:24:10.928Z,12.98
2023-05-13T09:26:39.007Z,13.02
2023-05-13T09:29:25.629Z,13.06
2023-05-13T09:31:55.645Z,13.07
2023-05-13T09:34:35.700Z,13.11
2023-05-13T09:37:05.687Z,13.15
2023-05-13T09:39:39.818Z,13.11
2023-05-13T09:42:17.153Z,13.11
2023-05-13T09:44:46.849Z,13.09
2023-05-13T09:47:15.259Z,13.12
2023-05-13T09:49:44.148Z,13.14
2023-05-13T09:52:12.389Z,13.12
2023-05-13T09:54:39.693Z,13.08
2023-05-13T09:57:07.087Z,13.11
2023-05-13T09:59:35.567Z,13.16
2023-05-13T10:02:07.190Z,13.20
2023-05-13T10:04:34.748Z,13.23
2023-05-13T10:07:04.507Z,13.25
2023-05-13T10:09:38.552Z,13.23
2023-05-13T10:12:09.112Z,13.27
2023-05-13T10:14:38.559Z,13.30
2023-05-13T10:17:07.220Z,13.28
2023-05-13T10:19:35.290Z,13.28
2023-05-13T10:22:03.977Z,13.26
2023-05-13T10:24:32.297Z,13.25
2023-05-13T10:27:02.857Z,13.28
2023-05-13T10:29:30.535Z,13.34
2023-05-13T10:31:59.103Z,13.44
2023-05-13T10:34:27.868Z,13.50
2023-05-13T10:37:11.329Z,13.51
2023-05-13T10:39:48.632Z,13.49
2023-05-13T10:42:27.170Z,13.47
2023-05-13T10:44:56.301Z,13.48
2023-05-13T10:47:24.070Z,13.52
2023-05-13T10:49:53.430Z,13.56
2023-05-13T10:52:21.130Z,13.64
2023-05-13T10:55:01.788Z,13.69
2023-05-13T10:57:31.182Z,13.75
2023-05-13T11:00:19.505Z,13.76
2023-05-13T11:02:47.039Z,13.69
2023-05-13T11:05:21.662Z,13.63
2023-05-13T11:07:57.810Z,13.64
2023-05-13T11:10:31.045Z,13.64
2023-05-13T11:13:08.667Z,13.69
2023-05-13T11:15:46.819Z,13.70
2023-05-13T11:18:14.242Z,13.72
2023-05-13T11:20:52.203Z,13.75
2023-05-13T11:23:21.427Z,13.77
2023-05-13T11:26:12.167Z,13.76
2023-05-13T11:28:58.872Z,13.76
2023-05-13T11:31:31.482Z,13.81
2023-05-13T11:34:16.551Z,13.88
2023-05-13T11:36:47.741Z,13.92
2023-05-13T11:39:18.038Z,13.97
2023-05-13T11:41:47.994Z,14.02
2023-05-13T11:44:18.185Z,14.17
2023-05-13T11:46:50.361Z,14.27
2023-05-13T11:49:23.699Z,14.35
2023-05-13T11:51:50.959Z,14.45
2023-05-13T11:54:18.374Z,14.48
2023-05-13T11:56:45.549Z,14.48
2023-05-13T11:59:15.838Z,14.49
2023-05-13T12:01:43.043Z,14.53
2023-05-13T12:04:13.266Z,14.52
2023-05-13T12:06:46.480Z,14.51
2023-05-13T12:09:13.891Z,14.53
2023-05-13T12:11:41.523Z,14.55
2023-05-13T12:14:09.442Z,14.58
2023-05-13T12:16:36.790Z,14.57
2023-05-13T12:19:07.511Z,14.61
2023-05-13T12:21:35.027Z,14.66
2023-05-13T12:24:02.214Z,14.69
2023-05-13T12:26:29.379Z,14.72
2023-05-13T12:28:59.837Z,14.80
2023-05-13T12:31:27.606Z,14.85
2023-05-13T12:33:54.960Z,14.90
2023-05-13T12:36:26.152Z,14.91
2023-05-13T12:39:00.185Z,14.93
2023-05-13T12:41:30.281Z,15.01
2023-05-13T12:43:58.925Z,15.02
2023-05-13T12:46:27.931Z,15.04
2023-05-13T12:48:57.736Z,15.01
2023-05-13T12:51:26.121Z,14.87
2023-05-13T12:53:54.762Z,14.78
2023-05-13T12:56:23.625Z,14.73
2023-05-13T12:58:52.131Z,14.73
2023-05-13T13:01:20.107Z,14.78
2023-05-13T13:03:47.383Z,14.81
2023-05-13T13:06:15.390Z,14.79
2023-05-13T13:08:43.137Z,14.81
2023-05-13T13:11:11.148Z,14.75
2023-05-13T13:13:39.409Z,14.74
2023-05-13T13:16:07.834Z,14.73
2023-05-13T13:18:35.785Z,14.71
2023-05-13T13:21:03.195Z,14.69
2023-05-13T13:23:30.598Z,14.69
2023-05-13T13:25:59.628Z,14.71
2023-05-13T13:28:32.731Z,14.73
2023-05-13T13:31:00.380Z,14.73
2023-05-13T13:33:28.076Z,14.66
2023-05-13T13:35:55.492Z,14.63
2023-05-13T13:38:22.834Z,14.60
2023-05-13T13:40:50.311Z,14.50
2023-05-13T13:43:17.609Z,14.49
2023-05-13T13:45:44.924Z,14.48
2023-05-13T13:48:12.290Z,14.47
2023-05-13T13:50:39.974Z,14.50
2023-05-13T13:53:07.321Z,14.52
2023-05-13T13:55:34.697Z,14.53
2023-05-13T13:58:01.987Z,14.57
2023-05-13T14:00:29.496Z,14.61
2023-05-13T14:02:57.034Z,14.63
2023-05-13T14:05:24.542Z,14.59
2023-05-13T14:07:54.552Z,14.58
2023-05-13T14:10:22.126Z,14.60
2023-05-13T14:12:49.741Z,14.64
2023-05-13T14:15:17.349Z,14.69
2023-05-13T14:17:44.757Z,14.71
2023-05-13T14:20:12.551Z,14.52
2023-05-13T14:22:39.898Z,14.53
2023-05-13T14:25:07.712Z,14.46
2023-05-13T14:27:36.707Z,14.41
2023-05-13T14:30:05.414Z,14.40
2023-05-13T14:32:33.670Z,14.46
2023-05-13T14:35:02.006Z,14.53
2023-05-13T14:37:29.642Z,14.58
2023-05-13T14:39:56.992Z,14.64
2023-05-13T14:42:24.185Z,14.65
2023-05-13T14:44:51.512Z,14.69
2023-05-13T14:47:18.968Z,14.73
2023-05-13T14:49:46.298Z,14.75
2023-05-13T14:52:13.615Z,14.75
2023-05-13T14:54:41.039Z,14.75
2023-05-13T14:57:08.475Z,14.82
2023-05-13T14:59:36.293Z,14.83
2023-05-13T15:02:04.090Z,14.83
2023-05-13T15:04:31.526Z,14.84
2023-05-13T15:06:59.011Z,14.80
2023-05-13T15:09:26.306Z,14.75
2023-05-13T15:11:53.708Z,14.69
2023-05-13T15:14:26.262Z,14.69
2023-05-13T15:16:53.972Z,14.66
2023-05-13T15:19:21.420Z,14.66
2023-05-13T15:21:48.829Z,14.66
2023-05-13T15:24:16.103Z,14.67
2023-05-13T15:26:45.133Z,14.64
2023-05-13T15:29:12.461Z,14.64
2023-05-13T15:31:39.629Z,14.60
2023-05-13T15:34:06.927Z,14.58
2023-05-13T15:36:35.908Z,14.57
2023-05-13T15:39:03.231Z,14.55
2023-05-13T15:41:30.553Z,14.47
2023-05-13T15:43:57.787Z,14.44
2023-05-13T15:46:26.200Z,14.42
2023-05-13T15:48:53.578Z,14.41
2023-05-13T15:51:21.146Z,14.41
2023-05-13T15:53:48.483Z,14.45
2023-05-13T15:56:15.910Z,14.46
2023-05-13T15:58:46.180Z,14.47
2023-05-13T16:01:13.626Z,14.47
2023-05-13T16:03:40.969Z,14.50
2023-05-13T16:06:08.342Z,14.44
2023-05-13T16:08:36.024Z,14.36
2023-05-13T16:11:04.062Z,14.35
2023-05-13T16:13:33.785Z,14.32
2023-05-13T16:16:01.175Z,14.34
2023-05-13T16:18:28.851Z,14.37
2023-05-13T16:20:57.143Z,14.37
2023-05-13T16:23:24.680Z,14.35
2023-05-13T16:25:52.090Z,14.27
2023-05-13T16:28:19.348Z,14.28
2023-05-13T16:30:47.242Z,14.26
2023-05-13T16:33:16.520Z,14.25
2023-05-13T16:35:44.429Z,14.24
2023-05-13T16:38:12.042Z,14.23
2023-05-13T16:40:39.372Z,14.23
2023-05-13T16:43:06.698Z,14.22
2023-05-13T16:45:33.953Z,14.24
2023-05-13T16:48:01.266Z,14.22
2023-05-13T16:50:29.779Z,14.24
2023-05-13T16:52:57.654Z,14.28
2023-05-13T16:55:26.409Z,14.29
2023-05-13T16:57:54.819Z,14.34
2023-05-13T17:00:22.423Z,14.29
2023-05-13T17:02:50.148Z,14.30
2023-05-13T17:05:19.083Z,14.26
2023-05-13T17:07:46.397Z,14.24
2023-05-13T17:10:13.678Z,14.24
2023-05-13T17:12:41.294Z,14.18
2023-05-13T17:15:09.270Z,14.19
2023-05-13T17:17:36.775Z,14.21
2023-05-13T17:20:05.776Z,14.21
2023-05-13T17:22:33.141Z,14.21
2023-05-13T17:25:00.503Z,14.20
2023-05-13T17:27:27.743Z,14.22
2023-05-13T17:29:55.119Z,14.23
2023-05-13T17:32:22.948Z,14.18
2023-05-13T17:34:50.991Z,14.14
2023-05-13T17:37:18.138Z,14.12
2023-05-13T17:39:45.473Z,14.10
2023-05-13T17:42:12.687Z,14.08
2023-05-13T17:44:40.150Z,14.05
2023-05-13T17:47:07.579Z,14.08
2023-05-13T17:49:36.335Z,14.03
2023-05-13T17:52:03.869Z,14.00
2023-05-13T17:54:31.195Z,14.00
2023-05-13T17:56:58.905Z,13.98
2023-05-13T17:59:26.120Z,13.96
2023-05-13T18:01:53.485Z,13.99
2023-05-13T18:04:20.788Z,13.97
2023-05-13T18:06:48.148Z,13.95
2023-05-13T18:09:15.635Z,13.88
2023-05-13T18:11:42.915Z,13.89
2023-05-13T18:14:12.905Z,13.87
2023-05-13T18:16:40.282Z,13.83
2023-05-13T18:19:07.644Z,13.83
2023-05-13T18:21:35.120Z,13.83
2023-05-13T18:24:02.483Z,13.77
2023-05-13T18:26:29.787Z,13.78
2023-05-13T18:28:57.038Z,13.84
2023-05-13T18:31:24.311Z,13.84
2023-05-13T18:33:51.750Z,13.84
2023-05-13T18:36:19.046Z,13.83
2023-05-13T18:38:48.381Z,13.86
2023-05-13T18:41:18.788Z,13.88
2023-05-13T18:43:48.382Z,13.84
2023-05-13T18:46:15.849Z,13.85
2023-05-13T18:48:43.070Z,13.85
2023-05-13T18:51:11.273Z,13.85
2023-05-13T18:53:38.622Z,13.85
2023-05-13T18:56:06.218Z,13.84
2023-05-13T18:58:33.503Z,13.82
2023-05-13T19:01:00.764Z,13.83
2023-05-13T19:03:28.970Z,13.82
2023-05-13T19:05:56.455Z,13.82
2023-05-13T19:08:23.723Z,13.80
2023-05-13T19:10:50.965Z,13.78
2023-05-13T19:13:20.172Z,13.70
2023-05-13T19:15:47.520Z,13.69
2023-05-13T19:18:15.095Z,13.64
2023-05-13T19:20:43.808Z,13.62
2023-05-13T19:23:11.136Z,13.59
2023-05-13T19:25:42.530Z,13.60
2023-05-13T19:28:10.933Z,13.60
2023-05-13T19:30:39.004Z,13.58
2023-05-13T19:33:06.459Z,13.58
2023-05-13T19:35:34.087Z,13.58
2023-05-13T19:38:01.503Z,13.56
2023-05-13T19:40:28.882Z,13.52
2023-05-13T19:42:57.484Z,13.52
2023-05-13T19:45:24.806Z,13.56
2023-05-13T19:47:52.180Z,13.56
2023-05-13T19:50:19.471Z,13.55
2023-05-13T19:52:46.660Z,13.56
2023-05-13T19:55:14.043Z,13.55
2023-05-13T19:57:42.689Z,13.56
2023-05-13T20:00:12.020Z,13.57
2023-05-13T20:02:40.147Z,13.57
2023-05-13T20:05:09.436Z,13.62
2023-05-13T20:07:38.926Z,13.61
2023-05-13T20:10:07.560Z,13.65
2023-05-13T20:12:34.908Z,13.67
2023-05-13T20:15:03.829Z,13.67
2023-05-13T20:17:31.277Z,13.63
2023-05-13T20:19:58.802Z,13.64
2023-05-13T20:22:26.079Z,13.64
2023-05-13T20:24:54.732Z,13.66
2023-05-13T20:27:21.968Z,13.63
2023-05-13T20:29:49.784Z,13.64
2023-05-13T20:32:18.886Z,13.62
2023-05-13T20:34:46.103Z,13.63
2023-05-13T20:37:13.669Z,13.60
2023-05-13T20:39:41.084Z,13.55
2023-05-13T20:42:10.079Z,13.53
2023-05-13T20:44:38.308Z,13.50
2023-05-13T20:47:05.967Z,13.47
2023-05-13T20:49:34.457Z,13.42
2023-05-13T20:52:04.564Z,13.36
2023-05-13T20:54:32.504Z,13.33
2023-05-13T20:57:01.544Z,13.30
2023-05-13T20:59:28.805Z,13.29
2023-05-13T21:01:56.050Z,13.30
2023-05-13T21:04:23.503Z,13.31
2023-05-13T21:06:50.689Z,13.29
2023-05-13T21:09:17.913Z,13.28
2023-05-13T21:11:44.944Z,13.24
2023-05-13T21:14:12.103Z,13.21
2023-05-13T21:16:39.290Z,13.18
2023-05-13T21:19:06.530Z,13.16
2023-05-13T21:21:33.690Z,13.12
2023-05-13T21:24:00.843Z,13.09
2023-05-13T21:26:28.053Z,13.06
2023-05-13T21:28:55.139Z,13.08
2023-05-13T21:31:22.292Z,13.09
2023-05-13T21:33:49.423Z,13.11
2023-05-13T21:36:16.545Z,13.12
2023-05-13T21:38:43.597Z,13.11
2023-05-13T21:41:10.697Z,13.11
2023-05-13T21:43:37.816Z,13.01
2023-05-13T21:46:06.731Z,12.97
2023-05-13T21:48:36.873Z,12.90
2023-05-13T21:51:04.291Z,12.89
2023-05-13T21:53:31.386Z,12.85
2023-05-13T21:56:00.395Z,12.78
2023-05-13T21:58:27.802Z,12.77
2023-05-13T22:00:54.909Z,12.76
2023-05-13T22:03:22.189Z,12.74
2023-05-13T22:05:49.463Z,12.73
2023-05-13T22:08:16.532Z,12.75
2023-05-13T22:10:43.683Z,12.77
2023-05-13T22:13:10.766Z,12.78
2023-05-13T22:15:37.930Z,12.82
2023-05-13T22:18:05.139Z,12.84
2023-05-13T22:20:32.342Z,12.90
2023-05-13T22:22:59.436Z,12.89
2023-05-13T22:25:28.571Z,12.85
2023-05-13T22:27:56.160Z,12.84
2023-05-13T22:30:23.503Z,12.83
2023-05-13T22:32:52.286Z,12.83
2023-05-13T22:35:19.327Z,12.81
2023-05-13T22:37:46.488Z,12.78
2023-05-13T22:40:14.103Z,12.74
2023-05-13T22:42:41.142Z,12.74
2023-05-13T22:45:09.246Z,12.78
2023-05-13T22:47:37.387Z,12.80
2023-05-13T22:50:05.285Z,12.77
2023-05-13T22:52:32.578Z,12.75
2023-05-13T22:54:59.663Z,12.73
2023-05-13T22:57:27.840Z,12.71
2023-05-13T22:59:54.947Z,12.67
2023-05-13T23:02:22.056Z,12.58
2023-05-13T23:04:49.090Z,12.56
2023-05-13T23:07:16.214Z,12.52
2023-05-13T23:09:43.265Z,12.50
2023-05-13T23:12:10.338Z,12.50
2023-05-13T23:14:37.395Z,12.51
2023-05-13T23:17:04.471Z,12.51
2023-05-13T23:19:31.521Z,12.48
2023-05-13T23:21:58.658Z,12.42
2023-05-13T23:24:25.698Z,12.39
2023-05-13T23:26:52.728Z,12.34
2023-05-13T23:29:19.739Z,12.32
2023-05-13T23:31:46.843Z,12.31
2023-05-13T23:34:14.041Z,12.32
2023-05-13T23:36:41.122Z,12.34
2023-05-13T23:39:08.603Z,12.33
2023-05-13T23:41:36.103Z,12.35
2023-05-13T23:44:04.478Z,12.37
2023-05-13T23:46:32.407Z,12.36
2023-05-13T23:49:00.059Z,12.34
2023-05-13T23:51:27.136Z,12.40
2023-05-13T23:53:55.644Z,12.41
2023-05-13T23:56:24.890Z,12.40
2023-05-13T23:58:51.929Z,12.39
